Saint Médard d'Aunis (17)                   Juin 2018                              
  Température (°C) - Abri Young à ventilation mécanique 43502 Humidité Vent (km/h) PeetBros Précipitations (mm) Pression (hPa) Divers  
Date Maxi Mini Moy de 1440 relevés Moy (tx+tn)/2 Index chaleur moyen Index chaleur maxi Froid dû au vent moy  Froid dû au vent mini/1min   Amplitude (Tx-Tn) Tx OMM/1min Tn OMM/1min Tm OMM/1min Relative maxi Relative mini Relative moy de 1440 relevés Relative moy (hx+hn)/2 Point de rosée maxi Point de rosée mini Point de rosée moy 1440 relevés Vent moy maxi (10min) Vent  moyen (24h) Direction dominante Rafales (km/h) maxi Direction rafale maxi Rafales moy (24h) Rafales (km/h)   maxi Total du jour (mm) Durée en heures et dixièmes Intensité maxi sur 1 min (mm/h) Maxi Mini Moy de 1440 relevés Moy (px+pn)/2 Variation Epaisseur neige (cm) Remarques diverses    
01/06/2018 22,3 13,7 17,63 18,00 17,86 22,4 17,61 13,4 8,6 22,3 13,7 18,00 95% 62% 83,1% 78,5% 16,3 12,8 14,58 13,86 4,99 N 20,9 NNE 6,92 21,3 0,0 0,0 0,0 1021,9 1019,7 1020,80 1020,80 2,2   Ciel 6/8 à 3/8  
02/06/2018 26,6 11,9 19,67 19,25 19,96 26,8 19,59 11,6 14,7 26,5 12,0 19,25 96% 48% 75,5% 72,0% 17,3 11,4 14,73 13,06 6,94 NE 25,7 NNE 9,92 24,3 0,0 0,0 0,0 1021,1 1015,5 1018,19 1018,30 5,6   Ciel 0/8 à 4/8  
03/06/2018 27,1 15,1 19,54 21,10 19,99 27,3 19,38 15,1 12,0 27,1 15,1 21,10 94% 44% 81,5% 69,0% 19,2 13,6 16,06 20,42 7,36 NE 40,2 NNE 10,28 42,3 2,2 0,8 12,0 1015,7 1011,3 1013,33 1013,50 4,4   Ciel entre 6/8 et 8/8, pluie, orage  
04/06/2018 21,1 14,5 17,48 17,80 17,99 22,0 17,14 14,6 6,6 21,0 14,6 17,80 96% 83% 92,6% 89,5% 18,9 13,8 16,26 24,59 7,72 WSW 32,2 SW 10,26 35,2 3,0 1,1 12,0 1012,3 1010,4 1011,09 1011,35 1,9   Ciel entre 6/8 et 8/8, pluie, orage  
05/06/2018 21,5 14,7 18,24 18,10 18,72 21,9 17,76 14,7 6,8 21,5 14,7 18,10 96% 73% 86,7% 84,5% 17,4 14,1 15,91 24,74 9,85 WSW 32,2 WSW 12,71 34,7 0,0 0,0 0,0 1012,2 1010,4 1011,47 1011,30 1,8   Ciel entre 6/8 et 8/8  
06/06/2018 22,9 16,3 18,36 19,60 18,89 23,8 17,71 14,9 6,6 22,9 16,4 19,65 97% 71% 89,3% 84,0% 18,6 15,0 16,52 26,73 10,84 SW 38,6 SSW 14,65 39,5 0,4 0,2 12,0 1014,7 1009,4 1011,69 1012,05 5,3   Ciel 8/8, brume, pluie faible le matin, 6/8 dans l'après-midi  
07/06/2018 24,2 13,1 18,65 18,65 19,04 24,9 18,38 12,9 11,1 24,1 13,1 18,60 96% 61% 83,4% 78,5% 18,2 12,3 15,61 17,86 9,46 S 27,4 SW 12,96 28,9 0,0 0,0 0,0 1016,0 1014,2 1015,03 1015,10 1,8   Ciel 6/8 à 4/8 le matin, entre 2/8 et 5/8 ensuite  
08/06/2018 27,3 12,1 20,94 19,70 21,42 27,4 20,92 12,1 15,2 27,3 12,1 19,70 97% 47% 76,0% 72,0% 19,5 11,6 16,13 11,62 5,53 ENE 24,1 SSE 8,04 23,0 0,0 0,0 0,0 1014,9 1010,2 1012,38 1012,55 4,7   Ciel 0/8 à 2/8 le matin, 2/8 à 6/8 l'après-midi  
09/06/2018 25,9 16,0 20,40 20,95 21,04 27,1 20,04 13,9 9,9 25,8 16,0 20,90 96% 58% 82,6% 77,0% 20,1 15,1 17,17 20,58 9,71 WSW 30,6 WSW 13,00 32,2 11,8 0,9 72,0 1012,7 1009,8 1011,32 1011,25 2,9   Ciel entre 2/8 et 3/8, 8/8 le soir, orage, pluie  
10/06/2018 23,5 15,7 19,24 19,60 19,76 24,6 18,93 13,4 7,8 23,5 15,7 19,60 97% 67% 85,2% 82,0% 19,2 14,6 16,56 19,14 10,29 WSW 29,0 W 13,79 30,4 1,6 0,4 12,0 1011,8 1009,7 1010,97 1010,75 2,1   Ciel entre 6/8 et 8/8 le matin, orage, pluie, 6/8 à 3/8 l'après-midi  
11/06/2018 20,1 15,3 17,45 17,70 17,81 20,7 16,39 14,2 4,8 20,1 15,4 17,75 96% 69% 87,1% 82,5% 16,9 13,2 15,22 27,38 14,42 WSW 37,0 W 18,55 37,5 12,4 2,8 12,0 1010,7 1009,0 1010,00 1009,85 1,7   Ciel 6/8 à 8/8, pluie  
12/06/2018 22,6 14,8 18,18 18,70 18,57 23,2 17,76 13,9 7,8 22,6 14,8 18,70 96% 69% 85,8% 82,5% 18,6 14,0 15,67 22,83 10,05 N 35,4 N 13,74 34,1 3,6 0,7 24,0 1017,1 1007,9 1011,77 1012,50 9,2   Ciel entre 6/8 et 8/8, pluie, tonnerre  
13/06/2018 22,8 13,2 17,58 18,00 17,77 23,2 17,04 12,1 9,6 22,8 13,2 18,00 96% 59% 82,9% 77,5% 16,6 12,4 14,44 22,66 10,90 WNW 30,6 WNW 14,63 31,7 0,0 0,0 0,0 1019,7 1017,0 1018,74 1018,35 2,7   Ciel entre 6/8 et 8/8 le matin, 8/8 à 1/8 l'après-midi  
14/06/2018 20,2 10,4 16,53 15,30 16,77 20,4 15,82 10,4 9,8 20,1 10,5 15,30 97% 67% 84,5% 82,0% 16,0 9,9 13,77 22,82 10,84 WSW 30,6 WSW 13,62 32,8 4,8 1,3 12,0 1019,5 1018,3 1018,95 1018,90 1,2   Ciel 2/8 à 6/8 le matin, 6/8 à 8/8 l'après-midi, pluie le soir  
15/06/2018 22,3 13,1 17,49 17,70 17,82 22,8 16,94 12,3 9,2 22,3 13,1 17,70 97% 67% 86,8% 82,0% 17,5 12,2 15,16 24,77 10,79 WSW 33,8 WNW 13,99 34,8 15,0 3,6 12,0 1018,4 1017,2 1017,87 1017,80 1,2   Ciel 8/8 à 6/8 le matin, pluie, 6/8 à 2/8 ensuite  
16/06/2018 21,0 12,7 17,02 16,85 17,09 20,8 16,22 12,1 8,3 21,0 12,7 16,85 96% 61% 78,8% 78,5% 14,5 11,4 13,10 25,90 12,52 W 37,0 W 16,16 37,8 0,0 0,0 0,0 1021,6 1017,1 1019,28 1019,35 4,5   Ciel entre 4/8 et 6/8  
                                                                           
                                                                           
                                                                           
                                                                           
                                                                           
                                                                           
                                                                           
                                                                           
                                                                           
                                                                           
                                                                           
                                                                           
                                                                           
                                                                           
                                                                           
  Température (°C) - Abri Young à ventilation mécanique 43502 Humidité Vent (km/h) PeetBros Précipitations (mm) Pression (hPa) Divers  
  Maxi Mini Moy de 1440 relevés Moy (tx+tn)/2 Index chaleur moyen Index chaleur maxi Froid dû au vent moy  Froid dû au vent mini/1min   Amplitude (Tx-Tn) Tx OMM/1min Tn OMM/1min Tm OMM/1min Relative maxi Relative mini Relative moy de 1440 relevés Relative moy (hx+hn)/2 Point de rosée maxi Point de rosée mini Point de rosée moy 1440 relevés Vent moy maxi (10min) Vent  moyen (24h) Direction dominante Rafales (km/h) maxi Direction rafale maxi Rafales moy (24h) Rafales (km/h)   maxi Total du jour (mm) Durée en heures et dixièmes Intensité maxi sur 1 min (mm/h) Maxi Mini Moy de 1440 relevés Moy (px+pn)/2 Variation Epaisseur neige (cm) Remarques diverses  
Maxi 27,3 16,3 20,94 21,10 21,42 27,4 20,92 15,1 15,2 27,3 16,4 21,10 97% 83% 92,6% 89,5% 20,1 15,1 17,17 27,38 14,42 WSW 40,2 NNE 18,55 42,3 15,0 3,6 72,0 1021,9 1019,7 1020,80 1020,80 9,2 0,0    
Mini 20,1 10,4 16,53 15,30 16,77 20,4 15,82 10,4 4,8 20,1 10,5 15,30 94% 44% 75,5% 69,0% 14,5 9,9 13,10 11,62 4,99   20,9   6,92 21,3       1010,7 1007,9 1010,00 1009,85 1,2      
Moy 23,21 13,91 18,40 18,56 18,78 23,71 17,98 13,23 9,30 23,18 13,94 18,56 96,1% 62,9% 83,9% 79,5% 17,80 12,96 15,43 21,19 9,51   31,58   12,70 32,53       1016,27 1012,94 1014,55 1014,61 3,33      
Total                                                     54,8 11,8             0,0    
   
  Observations        
Jours Rafales >= 36,0 km/h Rafales >= 57,6 km/h Rafales >= 75,6 km/h Rafales >= 100,8 km/h Précipi. >= 0,1 mm Précipi. >= 1,0 mm Précipi. >= 5,0 mm Précipi. >= 10,0 mm Tx <= 0 Tx <= -5 Tx <= -10 Tx >= 25 Tx >= 30 Tx >= 35 Tx >= 40 Tn <= 0 Tn <= -5 Tn <= -10 Tn <= -15 Tn <= -20 T moy <= 0 T moy <=     -5 T moy <=     -10 T moy >= 20 T moy >= 25 T moy >= 30 Grêle Grésil Brouillard Brume Orage Neige        
01/06/2018 0 0 0 0 0 0 0 0 0 0 0 0 0 0 0 0 0 0 0 0 0 0 0 0 0 0 0 0 0 0 0 0    
02/06/2018 0 0 0 0 0 0 0 0 0 0 0 1 0 0 0 0 0 0 0 0 0 0 0 0 0 0 0 0 0 0 0 0    
03/06/2018 1 0 0 0 1 1 0 0 0 0 0 1 0 0 0 0 0 0 0 0 0 0 0 0 0 0 0 0 0 0 1 0    
04/06/2018 0 0 0 0 1 1 0 0 0 0 0 0 0 0 0 0 0 0 0 0 0 0 0 0 0 0 0 0 0 0 1 0    
05/06/2018 0 0 0 0 0 0 0 0 0 0 0 0 0 0 0 0 0 0 0 0 0 0 0 0 0 0 0 0 0 0 0 0    
06/06/2018 1 0 0 0 1 0 0 0 0 0 0 0 0 0 0 0 0 0 0 0 0 0 0 0 0 0 0 0 0 1 0 0    
07/06/2018 0 0 0 0 0 0 0 0 0 0 0 0 0 0 0 0 0 0 0 0 0 0 0 0 0 0 0 0 0 0 0 0    
08/06/2018 0 0 0 0 0 0 0 0 0 0 0 1 0 0 0 0 0 0 0 0 0 0 0 0 0 0 0 0 0 0 0 0    
09/06/2018 0 0 0 0 1 1 1 1 0 0 0 1 0 0 0 0 0 0 0 0 0 0 0 0 0 0 0 0 0 0 1 0    
10/06/2018 0 0 0 0 1 1 0 0 0 0 0 0 0 0 0 0 0 0 0 0 0 0 0 0 0 0 0 0 0 0 1 0    
11/06/2018 1 0 0 0 1 1 1 1 0 0 0 0 0 0 0 0 0 0 0 0 0 0 0 0 0 0 0 0 0 0 0 0    
12/06/2018 0 0 0 0 1 1 0 0 0 0 0 0 0 0 0 0 0 0 0 0 0 0 0 0 0 0 0 0 0 0 1 0    
13/06/2018 0 0 0 0 0 0 0 0 0 0 0 0 0 0 0 0 0 0 0 0 0 0 0 0 0 0 0 0 0 0 0 0    
14/06/2018 0 0 0 0 1 1 0 0 0 0 0 0 0 0 0 0 0 0 0 0 0 0 0 0 0 0 0 0 0 0 0 0    
15/06/2018 0 0 0 0 1 1 1 1 0 0 0 0 0 0 0 0 0 0 0 0 0 0 0 0 0 0 0 0 0 0 0 0    
16/06/2018 1 0 0 0 0 0 0 0 0 0 0 0 0 0 0 0 0 0 0 0 0 0 0 0 0 0 0 0 0 0 0 0    
                                                                     
                                                                     
                                                                     
                                                                     
                                                                     
                                                                     
                                                                     
                                                                     
                                                                     
                                                                     
                                                                     
                                                                     
                                                                         
                                                                     
                                                                     
   
  Rafales >= 36,0 km/h Rafales >= 57,6 km/h Rafales >= 75,6 km/h Rafales >= 100,8 km/h Précipi. >= 0,1 mm Précipi. >= 1,0 mm Précipi. >= 5,0 mm Précipi. >= 10,0 mm Tx <=0 Tx <= -5 Tx <= -10 Tx >= 25 Tx >= 30 Tx >= 35 Tx >= 40 Tn <= 0 Tn <= -5 Tn <= -10 Tn <= -15 Tn <= -20 T moy <= 0 T moy <=  -5 T moy <=  -10 T moy >= 20 T moy >= 25 T moy >= 30 Grêle Grésil Brouillard Brume Orage Neige        
Total 4 0 0 0 9 8 3 3 0 0 0 4 0 0 0 0 0 0 0 0 0 0 0 0 0 0 0 0 0 1 5 0